createdAt,value
2019-03-02T00:01:40.674Z,26.33
2019-03-02T00:04:11.013Z,24.10
2019-03-02T00:06:40.215Z,23.10
2019-03-02T00:09:09.401Z,22.43
2019-03-02T00:11:38.572Z,24.27
2019-03-02T00:14:08.016Z,22.93
2019-03-02T00:16:39.757Z,22.80
2019-03-02T00:19:08.139Z,23.27
2019-03-02T00:21:37.329Z,27.30
2019-03-02T00:24:06.518Z,22.97
2019-03-02T00:26:35.677Z,25.00
2019-03-02T00:29:07.755Z,25.10
2019-03-02T00:31:35.790Z,26.03
2019-03-02T00:34:05.277Z,24.47
2019-03-02T00:36:34.515Z,25.03
2019-03-02T00:39:04.416Z,22.43
2019-03-02T00:41:33.559Z,24.10
2019-03-02T00:44:03.759Z,24.20
2019-03-02T00:46:33.639Z,27.73
2019-03-02T00:49:02.851Z,24.20
2019-03-02T00:51:32.047Z,24.23
2019-03-02T00:54:01.245Z,26.03
2019-03-02T00:56:30.426Z,23.87
2019-03-02T00:59:00.575Z,25.13
2019-03-02T01:01:30.505Z,20.87
2019-03-02T01:03:59.722Z,21.00
2019-03-02T01:06:28.841Z,21.33
2019-03-02T01:08:58.199Z,18.40
2019-03-02T01:11:29.453Z,20.33
2019-03-02T01:13:58.223Z,20.77
2019-03-02T01:16:27.410Z,22.10
2019-03-02T01:18:56.594Z,23.17
2019-03-02T01:21:25.784Z,19.77
2019-03-02T01:23:54.921Z,19.33
2019-03-02T01:26:24.779Z,18.23
2019-03-02T01:28:54.382Z,18.43
2019-03-02T01:31:23.601Z,18.67
2019-03-02T01:33:52.777Z,18.97
2019-03-02T01:36:22.029Z,19.87
2019-03-02T01:38:54.042Z,17.00
2019-03-02T01:41:22.301Z,16.80
2019-03-02T01:43:51.851Z,20.67
2019-03-02T01:46:21.031Z,15.50
2019-03-02T01:48:52.311Z,18.70
2019-03-02T01:51:23.871Z,20.77
2019-03-02T01:53:56.855Z,18.23
2019-03-02T01:56:27.124Z,17.20
2019-03-02T01:59:00.677Z,18.70
2019-03-02T02:01:30.565Z,18.10
2019-03-02T02:04:00.351Z,16.43
2019-03-02T02:06:30.330Z,19.43
2019-03-02T02:09:01.777Z,19.50
2019-03-02T02:11:31.099Z,17.97
2019-03-02T02:14:00.249Z,17.90
2019-03-02T02:16:29.421Z,17.57
2019-03-02T02:18:59.337Z,18.47
2019-03-02T02:21:29.005Z,19.13
2019-03-02T02:23:58.198Z,17.43
2019-03-02T02:26:27.633Z,18.73
2019-03-02T02:28:56.824Z,19.03
2019-03-02T02:31:25.988Z,15.47
2019-03-02T02:33:55.116Z,18.60
2019-03-02T02:36:24.397Z,18.77
2019-03-02T02:38:54.559Z,16.50
2019-03-02T02:41:25.058Z,16.97
2019-03-02T02:43:59.012Z,18.87
2019-03-02T02:46:27.502Z,19.03
2019-03-02T02:48:56.158Z,17.03
2019-03-02T02:51:25.747Z,16.20
2019-03-02T02:53:55.337Z,18.03
2019-03-02T02:56:24.558Z,18.33
2019-03-02T02:58:56.301Z,17.10
2019-03-02T03:01:32.997Z,18.97
2019-03-02T03:03:59.544Z,15.57
2019-03-02T03:06:28.510Z,15.13
2019-03-02T03:08:57.662Z,17.73
2019-03-02T03:11:26.844Z,17.97
2019-03-02T03:13:56.025Z,16.67
2019-03-02T03:16:25.230Z,18.80
2019-03-02T03:18:54.655Z,17.77
2019-03-02T03:21:27.775Z,14.87
2019-03-02T03:24:03.015Z,16.60
2019-03-02T03:26:25.659Z,19.03
2019-03-02T03:28:54.792Z,16.50
2019-03-02T03:31:25.840Z,15.70
2019-03-02T03:33:55.193Z,23.83
2019-03-02T03:36:24.334Z,18.10
2019-03-02T03:38:53.476Z,19.50
2019-03-02T03:41:22.662Z,17.37
2019-03-02T03:43:51.835Z,16.50
2019-03-02T03:46:22.271Z,17.47
2019-03-02T03:48:56.381Z,17.43
2019-03-02T03:51:26.119Z,16.93
2019-03-02T03:53:54.043Z,17.83
2019-03-02T03:56:23.217Z,16.33
2019-03-02T03:59:14.342Z,17.27
2019-03-02T04:01:42.385Z,18.73
2019-03-02T04:04:11.658Z,18.87
2019-03-02T04:06:41.148Z,20.10
2019-03-02T04:09:10.427Z,16.87
2019-03-02T04:11:42.163Z,19.90
2019-03-02T04:14:10.486Z,19.53
2019-03-02T04:16:39.658Z,22.27
2019-03-02T04:19:10.946Z,18.30
2019-03-02T04:21:45.502Z,16.67
2019-03-02T04:24:14.625Z,19.53
2019-03-02T04:26:43.720Z,19.33
2019-03-02T04:29:12.843Z,21.33
2019-03-02T04:31:43.982Z,20.23
2019-03-02T04:34:20.197Z,21.70
2019-03-02T04:36:47.303Z,19.33
2019-03-02T04:39:15.122Z,23.87
2019-03-02T04:41:44.281Z,23.53
2019-03-02T04:44:13.426Z,25.50
2019-03-02T04:46:42.585Z,23.60
2019-03-02T04:49:14.639Z,24.43
2019-03-02T04:51:42.613Z,23.80
2019-03-02T04:54:11.733Z,25.30
2019-03-02T04:56:40.960Z,26.07
2019-03-02T04:59:10.434Z,28.03
2019-03-02T05:01:43.669Z,25.57
2019-03-02T05:04:10.463Z,25.00
2019-03-02T05:06:39.619Z,26.23
2019-03-02T05:09:09.250Z,30.27
2019-03-02T05:11:39.279Z,30.80
2019-03-02T05:14:09.289Z,28.13
2019-03-02T05:16:38.428Z,27.07
2019-03-02T05:19:07.585Z,31.10
2019-03-02T05:21:39.924Z,31.83
2019-03-02T05:24:09.245Z,30.43
2019-03-02T05:26:38.754Z,32.53
2019-03-02T05:29:07.924Z,30.87
2019-03-02T05:31:37.550Z,35.77
2019-03-02T05:34:08.035Z,35.27
2019-03-02T05:36:37.186Z,33.10
2019-03-02T05:39:06.761Z,30.77
2019-03-02T05:41:39.300Z,33.43
2019-03-02T05:44:06.913Z,32.57
2019-03-02T05:46:36.044Z,33.17
2019-03-02T05:49:05.206Z,42.00
2019-03-02T05:51:34.259Z,36.63
2019-03-02T05:54:06.442Z,34.97
2019-03-02T05:56:34.281Z,37.87
2019-03-02T05:59:04.069Z,35.13
2019-03-02T06:01:33.207Z,37.70
2019-03-02T06:04:02.402Z,34.53
2019-03-02T06:06:31.996Z,32.93
2019-03-02T06:09:01.253Z,32.70
2019-03-02T06:11:30.704Z,36.23
2019-03-02T06:13:59.882Z,34.30
2019-03-02T06:16:29.129Z,35.27
2019-03-02T06:18:58.308Z,34.47
2019-03-02T06:21:27.447Z,36.90
2019-03-02T06:23:56.644Z,35.77
2019-03-02T06:26:25.810Z,36.80
2019-03-02T06:28:57.921Z,37.37
2019-03-02T06:31:25.872Z,37.47
2019-03-02T06:33:55.037Z,38.93
2019-03-02T06:36:24.162Z,42.50
2019-03-02T06:38:53.336Z,35.80
2019-03-02T06:41:23.104Z,36.07
2019-03-02T06:43:55.089Z,37.93
2019-03-02T06:46:23.436Z,36.47
2019-03-02T06:48:52.817Z,33.43
2019-03-02T06:51:21.943Z,53.13
2019-03-02T06:53:51.126Z,38.63
2019-03-02T06:56:20.270Z,39.40
2019-03-02T06:58:49.436Z,39.77
2019-03-02T07:01:20.796Z,34.30
2019-03-02T07:03:49.515Z,35.80
2019-03-02T07:06:18.702Z,39.23
2019-03-02T07:08:47.875Z,35.00
2019-03-02T07:11:17.041Z,35.47
2019-03-02T07:13:46.209Z,33.73
2019-03-02T07:16:16.595Z,54.97
2019-03-02T07:19:19.063Z,48.70
2019-03-02T07:21:49.043Z,39.23
2019-03-02T07:24:18.255Z,34.30
2019-03-02T07:26:47.417Z,31.73
2019-03-02T07:29:18.601Z,30.53
2019-03-02T07:31:48.095Z,35.13
2019-03-02T07:34:17.259Z,33.17
2019-03-02T07:36:46.402Z,30.47
2019-03-02T07:39:15.563Z,69.30
2019-03-02T07:41:44.910Z,40.57
2019-03-02T07:44:14.562Z,34.57
2019-03-02T07:46:47.576Z,35.93
2019-03-02T07:49:14.793Z,37.70
2019-03-02T07:51:44.191Z,34.03
2019-03-02T07:54:13.364Z,41.43
2019-03-02T07:56:42.801Z,36.17
2019-03-02T07:59:11.947Z,36.47
2019-03-02T08:01:41.030Z,41.10
2019-03-02T08:04:10.195Z,38.80
2019-03-02T08:06:39.320Z,40.07
2019-03-02T08:09:08.683Z,41.70
2019-03-02T08:11:38.629Z,38.97
2019-03-02T08:14:08.883Z,39.63
2019-03-02T08:16:39.102Z,40.47
2019-03-02T08:19:08.297Z,46.63
2019-03-02T08:21:37.466Z,45.33
2019-03-02T08:24:06.713Z,39.70
2019-03-02T08:26:35.861Z,41.93
2019-03-02T08:29:05.183Z,43.03
2019-03-02T08:31:34.319Z,45.00
2019-03-02T08:34:05.988Z,35.37
2019-03-02T08:36:34.539Z,40.07
2019-03-02T08:39:06.781Z,41.13
2019-03-02T08:41:36.637Z,40.40
2019-03-02T08:44:07.054Z,39.10
2019-03-02T08:46:36.116Z,38.70
2019-03-02T08:49:06.411Z,37.20
2019-03-02T08:51:36.310Z,37.53
2019-03-02T08:54:05.475Z,39.77
2019-03-02T08:56:34.628Z,36.73
2019-03-02T08:59:03.829Z,35.93
2019-03-02T09:01:32.993Z,37.87
2019-03-02T09:04:03.237Z,33.97
2019-03-02T09:06:34.778Z,36.70
2019-03-02T09:09:04.704Z,38.60
2019-03-02T09:11:33.906Z,33.70
2019-03-02T09:14:03.075Z,33.30
2019-03-02T09:16:32.135Z,36.43
2019-03-02T09:19:01.413Z,37.33
2019-03-02T09:21:30.538Z,34.83
2019-03-02T09:23:59.688Z,35.37
2019-03-02T09:26:28.851Z,34.43
2019-03-02T09:28:58.369Z,36.67
2019-03-02T09:31:27.534Z,34.10
2019-03-02T09:33:56.774Z,35.57
2019-03-02T09:36:27.774Z,34.50
2019-03-02T09:38:57.473Z,32.60
2019-03-02T09:41:26.708Z,33.03
2019-03-02T09:44:00.995Z,34.10
2019-03-02T09:46:28.255Z,34.53
2019-03-02T09:49:00.689Z,34.03
2019-03-02T09:51:28.464Z,36.70
2019-03-02T09:53:57.603Z,34.00
2019-03-02T09:56:26.733Z,35.57
2019-03-02T09:58:57.886Z,35.93
2019-03-02T10:01:26.788Z,34.00
2019-03-02T10:03:58.782Z,34.90
2019-03-02T10:06:27.560Z,33.80
2019-03-02T10:08:56.760Z,37.47
2019-03-02T10:11:25.995Z,37.17
2019-03-02T10:13:55.193Z,34.90
2019-03-02T10:16:24.332Z,37.97
2019-03-02T10:18:53.527Z,37.37
2019-03-02T10:21:22.677Z,41.13
2019-03-02T10:23:51.871Z,36.23
2019-03-02T10:26:20.995Z,35.13
2019-03-02T10:28:50.396Z,35.50
2019-03-02T10:31:19.576Z,35.40
2019-03-02T10:33:48.828Z,36.60
2019-03-02T10:36:17.976Z,33.37
2019-03-02T10:38:47.109Z,35.27
2019-03-02T10:41:16.717Z,33.83
2019-03-02T10:43:47.307Z,32.87
2019-03-02T10:46:16.526Z,32.10
2019-03-02T10:48:45.747Z,32.97
2019-03-02T10:51:14.987Z,31.57
2019-03-02T10:53:44.171Z,34.40
2019-03-02T10:56:13.367Z,33.80
2019-03-02T10:58:42.843Z,49.37
2019-03-02T11:01:12.004Z,34.20
2019-03-02T11:03:41.179Z,30.23
2019-03-02T11:06:18.742Z,31.30
2019-03-02T11:09:25.541Z,31.17
2019-03-02T11:12:17.501Z,30.17
2019-03-02T11:15:07.633Z,28.80
2019-03-02T11:17:58.813Z,28.40
2019-03-02T11:20:42.237Z,28.77
2019-03-02T11:23:29.404Z,25.90
2019-03-02T11:26:23.519Z,26.90
2019-03-02T11:29:23.942Z,25.03
2019-03-02T11:32:11.261Z,25.90
2019-03-02T11:35:06.926Z,24.70
2019-03-02T11:38:01.462Z,22.07
2019-03-02T11:40:43.499Z,31.93
2019-03-02T11:43:36.790Z,47.30
2019-03-02T11:46:25.102Z,22.60
2019-03-02T11:49:12.177Z,30.63
2019-03-02T11:51:50.557Z,23.60
2019-03-02T11:54:43.662Z,27.90
2019-03-02T11:57:24.955Z,26.13
2019-03-02T12:00:21.405Z,24.33
2019-03-02T12:03:12.818Z,23.17
2019-03-02T12:06:07.205Z,20.43
2019-03-02T12:09:13.575Z,26.40
2019-03-02T12:11:55.908Z,23.40
2019-03-02T12:14:37.648Z,21.10
2019-03-02T12:17:23.421Z,22.70
2019-03-02T12:20:09.030Z,23.80
2019-03-02T12:22:49.410Z,30.43
2019-03-02T12:25:36.608Z,22.83
2019-03-02T12:28:24.074Z,21.97
2019-03-02T12:31:12.774Z,21.13
2019-03-02T12:34:04.127Z,22.63
2019-03-02T12:36:53.265Z,25.70
2019-03-02T12:39:30.417Z,21.70
2019-03-02T12:42:17.378Z,21.43
2019-03-02T12:45:20.907Z,19.50
2019-03-02T12:48:24.006Z,23.37
2019-03-02T12:51:05.937Z,19.93
2019-03-02T12:53:53.009Z,33.53
2019-03-02T12:56:46.097Z,23.37
2019-03-02T12:59:22.014Z,30.10
2019-03-02T13:01:57.499Z,23.27
2019-03-02T13:04:45.353Z,33.10
2019-03-02T13:07:27.210Z,21.93
2019-03-02T13:10:16.149Z,22.83
2019-03-02T13:13:00.883Z,23.43
2019-03-02T13:15:42.236Z,52.93
2019-03-02T13:18:39.329Z,22.00
2019-03-02T13:21:18.796Z,35.60
2019-03-02T13:24:04.800Z,29.67
2019-03-02T13:26:53.863Z,23.90
2019-03-02T13:29:29.104Z,33.30
2019-03-02T13:32:21.240Z,23.83
2019-03-02T13:35:12.293Z,23.63
2019-03-02T13:37:53.117Z,21.70
2019-03-02T13:40:30.136Z,26.93
2019-03-02T13:43:18.043Z,23.93
2019-03-02T13:46:06.031Z,22.93
2019-03-02T13:48:47.243Z,23.30
2019-03-02T13:51:26.034Z,25.90
2019-03-02T13:54:10.808Z,21.27
2019-03-02T13:57:00.964Z,20.80
2019-03-02T13:59:47.299Z,23.67
2019-03-02T14:02:35.181Z,20.03
2019-03-02T14:05:17.862Z,20.87
2019-03-02T14:07:59.031Z,24.77
2019-03-02T14:10:38.724Z,26.33
2019-03-02T14:13:42.088Z,20.23
2019-03-02T14:16:32.188Z,21.33
2019-03-02T14:19:19.126Z,22.70
2019-03-02T14:22:21.453Z,18.40
2019-03-02T14:25:25.113Z,22.93
2019-03-02T14:28:16.063Z,23.53
2019-03-02T14:31:07.069Z,18.77
2019-03-02T14:33:48.149Z,18.80
2019-03-02T14:36:34.746Z,20.50
2019-03-02T14:39:23.334Z,19.97
2019-03-02T14:42:04.078Z,22.40
2019-03-02T14:44:54.005Z,21.93
2019-03-02T14:47:41.331Z,20.53
2019-03-02T14:50:26.891Z,21.97
2019-03-02T14:53:10.013Z,23.47
2019-03-02T14:55:47.813Z,22.43
2019-03-02T14:58:51.184Z,21.20
2019-03-02T15:01:30.445Z,27.30
2019-03-02T15:04:24.623Z,26.10
2019-03-02T15:07:18.379Z,22.53
2019-03-02T15:10:09.803Z,21.50
2019-03-02T15:13:00.047Z,23.43
2019-03-02T15:15:39.550Z,20.93
2019-03-02T15:18:40.059Z,43.27
2019-03-02T15:21:24.554Z,27.50
2019-03-02T15:24:00.916Z,47.07
2019-03-02T15:26:35.415Z,23.10
2019-03-02T15:29:24.030Z,29.90
2019-03-02T15:32:07.748Z,28.77
2019-03-02T15:34:49.939Z,23.60
2019-03-02T15:37:48.219Z,20.20
2019-03-02T15:40:39.440Z,24.90
2019-03-02T15:43:21.686Z,20.80
2019-03-02T15:46:16.329Z,23.10
2019-03-02T15:49:13.491Z,20.23
2019-03-02T15:51:55.216Z,22.67
2019-03-02T15:54:42.982Z,30.33
2019-03-02T15:57:39.956Z,22.23
2019-03-02T16:00:29.493Z,22.53
2019-03-02T16:03:09.903Z,24.07
2019-03-02T16:05:56.906Z,22.10
2019-03-02T16:08:43.065Z,24.57
2019-03-02T16:11:32.340Z,26.13
2019-03-02T16:14:18.762Z,20.70
2019-03-02T16:17:09.684Z,31.37
2019-03-02T16:20:07.627Z,29.70
2019-03-02T16:22:54.698Z,27.03
2019-03-02T16:25:48.057Z,26.67
2019-03-02T16:28:50.749Z,26.87
2019-03-02T16:31:57.058Z,27.40
2019-03-02T16:34:47.480Z,24.47
2019-03-02T16:37:37.286Z,25.20
2019-03-02T16:40:25.506Z,25.43
2019-03-02T16:43:16.465Z,58.30
2019-03-02T16:45:58.590Z,29.23
2019-03-02T16:48:35.631Z,27.73
2019-03-02T16:51:12.564Z,27.37
2019-03-02T16:53:57.271Z,29.77
2019-03-02T16:56:45.270Z,30.20
2019-03-02T16:59:32.204Z,25.80
2019-03-02T17:02:08.028Z,25.53
2019-03-02T17:05:02.323Z,24.33
2019-03-02T17:08:08.714Z,27.30
2019-03-02T17:10:59.672Z,24.67
2019-03-02T17:13:40.266Z,25.60
2019-03-02T17:16:16.036Z,26.40
2019-03-02T17:19:10.490Z,28.80
2019-03-02T17:21:48.410Z,30.87
2019-03-02T17:24:42.345Z,24.43
2019-03-02T17:27:21.227Z,27.23
2019-03-02T17:30:04.958Z,25.27
2019-03-02T17:32:44.468Z,27.30
2019-03-02T17:35:41.999Z,26.23
2019-03-02T17:38:27.136Z,23.03
2019-03-02T17:41:14.916Z,23.67
2019-03-02T17:46:50.631Z,24.40
2019-03-02T17:49:36.451Z,23.87
2019-03-02T17:52:15.389Z,28.57
2019-03-02T17:54:54.513Z,26.77
2019-03-02T17:57:34.553Z,28.27
2019-03-02T18:00:21.311Z,30.13
2019-03-02T18:02:59.782Z,27.90
2019-03-02T18:06:06.578Z,30.67
2019-03-02T18:08:55.432Z,31.00
2019-03-02T18:11:39.697Z,32.67
2019-03-02T18:14:43.357Z,34.80
2019-03-02T18:17:34.070Z,37.33
2019-03-02T18:20:03.189Z,34.40
2019-03-02T18:22:32.461Z,35.53
2019-03-02T18:25:01.552Z,34.40
2019-03-02T18:27:33.230Z,32.60
2019-03-02T18:30:02.208Z,40.50
2019-03-02T18:32:34.178Z,37.20
2019-03-02T18:35:03.244Z,44.93
2019-03-02T18:37:32.702Z,39.57
2019-03-02T18:40:03.932Z,38.93
2019-03-02T18:42:33.269Z,47.03
2019-03-02T18:45:04.317Z,52.33
2019-03-02T18:47:33.240Z,58.03
2019-03-02T18:50:11.676Z,57.20
2019-03-02T18:53:14.825Z,58.97
2019-03-02T18:55:43.927Z,50.90
2019-03-02T18:58:12.987Z,50.37
2019-03-02T19:00:45.941Z,45.10
2019-03-02T19:03:15.035Z,48.90
2019-03-02T19:05:46.139Z,45.77
2019-03-02T19:08:16.237Z,43.50
2019-03-02T19:10:45.633Z,36.93
2019-03-02T19:13:14.721Z,39.60
2019-03-02T19:15:53.281Z,39.57
2019-03-02T19:18:14.696Z,38.27
2019-03-02T19:20:44.095Z,38.93
2019-03-02T19:23:13.110Z,35.70
2019-03-02T19:25:42.590Z,36.63
2019-03-02T19:28:11.682Z,34.37
2019-03-02T19:30:41.187Z,34.73
2019-03-02T19:33:13.986Z,34.60
2019-03-02T19:35:44.599Z,36.83
2019-03-02T19:38:13.741Z,33.13
2019-03-02T19:41:00.943Z,33.30
2019-03-02T19:43:43.723Z,33.63
2019-03-02T19:46:16.905Z,30.27
2019-03-02T19:48:47.809Z,36.83
2019-03-02T19:51:18.697Z,37.97
2019-03-02T19:53:52.398Z,34.67
2019-03-02T19:56:21.901Z,39.93
2019-03-02T19:58:51.028Z,39.43
2019-03-02T20:01:20.143Z,37.90
2019-03-02T20:03:51.770Z,38.57
2019-03-02T20:06:22.131Z,39.30
2019-03-02T20:08:51.305Z,39.57
2019-03-02T20:11:20.507Z,38.63
2019-03-02T20:13:49.734Z,38.20
2019-03-02T20:16:19.002Z,34.73
2019-03-02T20:18:49.960Z,37.30
2019-03-02T20:21:19.253Z,39.87
2019-03-02T20:23:48.571Z,36.90
2019-03-02T20:26:17.671Z,37.80
2019-03-02T20:28:46.703Z,42.50
2019-03-02T20:31:16.065Z,35.23
2019-03-02T20:33:47.631Z,35.30
2019-03-02T20:36:16.846Z,36.17
2019-03-02T20:38:46.523Z,38.33
2019-03-02T20:41:15.858Z,38.93
2019-03-02T20:43:45.140Z,40.10
2019-03-02T20:46:14.860Z,41.77
2019-03-02T20:48:43.993Z,35.60
2019-03-02T20:51:14.595Z,36.67
2019-03-02T20:53:44.998Z,42.67
2019-03-02T20:56:14.210Z,45.70
2019-03-02T20:58:43.348Z,40.00
2019-03-02T21:01:12.550Z,40.70
2019-03-02T21:03:41.667Z,37.60
2019-03-02T21:06:10.917Z,35.27
2019-03-02T21:08:39.934Z,36.93
2019-03-02T21:11:09.030Z,37.00
2019-03-02T21:13:38.083Z,37.67
2019-03-02T21:16:07.494Z,34.60
2019-03-02T21:18:36.616Z,34.03
2019-03-02T21:21:06.082Z,35.63
2019-03-02T21:23:35.257Z,36.10
2019-03-02T21:26:06.622Z,31.30
2019-03-02T21:28:35.666Z,36.87
2019-03-02T21:31:04.854Z,34.50
2019-03-02T21:33:34.094Z,32.50
2019-03-02T21:36:03.197Z,33.43
2019-03-02T21:38:32.350Z,33.47
2019-03-02T21:41:11.593Z,35.23
2019-03-02T21:43:40.688Z,29.90
2019-03-02T21:46:09.780Z,33.10
2019-03-02T21:48:39.015Z,42.77
2019-03-02T21:51:09.551Z,30.80
2019-03-02T21:53:39.031Z,33.83
2019-03-02T21:56:11.280Z,32.30
2019-03-02T21:58:47.797Z,31.13
2019-03-02T22:01:16.895Z,25.77
2019-03-02T22:03:47.174Z,27.33
2019-03-02T22:06:16.334Z,27.73
2019-03-02T22:08:45.368Z,23.73
2019-03-02T22:11:14.812Z,28.10
2019-03-02T22:13:43.939Z,25.37
2019-03-02T22:16:13.159Z,24.30
2019-03-02T22:18:42.283Z,24.90
2019-03-02T22:21:11.405Z,22.27
2019-03-02T22:23:43.346Z,30.10
2019-03-02T22:26:12.883Z,26.90
2019-03-02T22:28:42.023Z,20.83
2019-03-02T22:31:11.172Z,22.57
2019-03-02T22:33:40.207Z,24.60
2019-03-02T22:36:14.972Z,20.67
2019-03-02T22:38:45.398Z,18.50
2019-03-02T22:41:14.688Z,26.07
2019-03-02T22:43:49.244Z,18.80
2019-03-02T22:46:22.134Z,17.20
2019-03-02T22:48:51.207Z,18.43
2019-03-02T22:51:22.544Z,18.27
2019-03-02T22:53:51.347Z,15.87
2019-03-02T22:56:20.436Z,16.93
2019-03-02T22:58:48.631Z,20.80
2019-03-02T23:01:29.843Z,28.50
2019-03-02T23:03:58.988Z,22.23
2019-03-02T23:06:28.235Z,19.03
2019-03-02T23:08:57.820Z,18.77
2019-03-02T23:11:30.101Z,15.80
2019-03-02T23:13:59.164Z,13.27
2019-03-02T23:16:28.247Z,16.00
2019-03-02T23:18:57.257Z,14.43
2019-03-02T23:21:26.268Z,11.47
2019-03-02T23:23:55.262Z,10.73
2019-03-02T23:26:24.382Z,11.00
2019-03-02T23:28:53.466Z,10.97
2019-03-02T23:31:22.650Z,12.63
2019-03-02T23:33:51.773Z,10.67
2019-03-02T23:36:21.150Z,11.57
2019-03-02T23:38:50.483Z,12.97
2019-03-02T23:41:19.624Z,9.93
2019-03-02T23:43:48.718Z,11.47
2019-03-02T23:46:20.846Z,10.13
2019-03-02T23:48:49.920Z,9.70
2019-03-02T23:51:19.034Z,9.93
2019-03-02T23:53:51.020Z,8.90
2019-03-02T23:56:20.013Z,9.80
2019-03-02T23:58:49.153Z,9.20
